createdAt,value
2023-01-26T00:00:44.293Z,22.13
2023-01-26T00:03:32.229Z,21.90
2023-01-26T00:06:22.976Z,23.30
2023-01-26T00:09:14.245Z,23.13
2023-01-26T00:12:02.053Z,21.67
2023-01-26T00:14:50.937Z,20.80
2023-01-26T00:17:38.325Z,20.07
2023-01-26T00:20:24.817Z,19.87
2023-01-26T00:23:11.197Z,20.17
2023-01-26T00:25:57.785Z,20.33
2023-01-26T00:28:45.901Z,20.77
2023-01-26T00:31:32.767Z,19.93
2023-01-26T00:34:19.567Z,19.70
2023-01-26T00:37:05.933Z,20.20
2023-01-26T00:39:52.400Z,20.03
2023-01-26T00:42:39.888Z,21.00
2023-01-26T00:45:27.932Z,20.23
2023-01-26T00:48:14.545Z,21.63
2023-01-26T00:51:00.851Z,21.67
2023-01-26T00:53:47.324Z,24.07
2023-01-26T00:56:33.759Z,22.70
2023-01-26T00:59:20.138Z,23.57
2023-01-26T01:02:07.957Z,22.27
2023-01-26T01:04:54.665Z,22.17
2023-01-26T01:07:41.672Z,22.40
2023-01-26T01:10:28.130Z,22.77
2023-01-26T01:13:14.644Z,23.93
2023-01-26T01:16:01.178Z,22.90
2023-01-26T01:18:48.822Z,23.27
2023-01-26T01:21:36.408Z,23.63
2023-01-26T01:24:22.794Z,23.07
2023-01-26T01:27:09.577Z,23.57
2023-01-26T01:29:55.853Z,25.97
2023-01-26T01:32:43.141Z,24.87
2023-01-26T01:35:31.661Z,23.33
2023-01-26T01:38:18.233Z,22.13
2023-01-26T01:41:05.203Z,24.33
2023-01-26T01:43:52.308Z,22.37
2023-01-26T01:46:41.240Z,23.13
2023-01-26T01:49:31.268Z,23.67
2023-01-26T01:52:26.197Z,23.53
2023-01-26T01:55:16.170Z,23.00
2023-01-26T01:58:03.877Z,23.60
2023-01-26T02:00:50.203Z,22.07
2023-01-26T02:03:37.920Z,21.13
2023-01-26T02:06:29.603Z,21.97
2023-01-26T02:09:33.289Z,23.43
2023-01-26T02:12:23.929Z,21.87
2023-01-26T02:15:11.133Z,22.73
2023-01-26T02:18:02.298Z,21.40
2023-01-26T02:20:52.341Z,21.50
2023-01-26T02:23:50.443Z,22.07
2023-01-26T02:26:39.203Z,22.90
2023-01-26T02:29:25.712Z,21.73
2023-01-26T02:32:12.138Z,22.03
2023-01-26T02:34:58.753Z,22.90
2023-01-26T02:37:45.758Z,24.37
2023-01-26T02:40:40.127Z,24.30
2023-01-26T02:43:28.133Z,24.43
2023-01-26T02:46:14.422Z,23.03
2023-01-26T02:49:18.200Z,24.30
2023-01-26T02:52:06.404Z,23.07
2023-01-26T02:55:10.291Z,24.53
2023-01-26T02:57:58.890Z,23.57
2023-01-26T03:00:46.811Z,24.67
2023-01-26T03:03:42.537Z,24.73
2023-01-26T03:06:28.858Z,24.87
2023-01-26T03:09:15.391Z,26.40
2023-01-26T03:12:02.168Z,24.87
2023-01-26T03:15:09.352Z,26.40
2023-01-26T03:18:21.989Z,23.87
2023-01-26T03:21:30.111Z,25.17
2023-01-26T03:24:34.458Z,25.17
2023-01-26T03:27:30.072Z,25.13
2023-01-26T03:30:19.431Z,24.70
2023-01-26T03:33:07.420Z,23.53
2023-01-26T03:35:55.526Z,23.00
2023-01-26T03:38:41.833Z,24.07
2023-01-26T03:41:45.565Z,25.23
2023-01-26T03:44:49.572Z,21.77
2023-01-26T03:47:54.128Z,23.97
2023-01-26T03:50:59.356Z,23.63
2023-01-26T03:54:03.915Z,28.10
2023-01-26T03:56:50.503Z,23.97
2023-01-26T03:59:39.660Z,29.23
2023-01-26T04:02:43.492Z,25.17
2023-01-26T04:05:47.560Z,23.17
2023-01-26T04:08:35.518Z,24.03
2023-01-26T04:11:22.269Z,24.17
2023-01-26T04:14:29.461Z,24.33
2023-01-26T04:17:35.509Z,22.10
2023-01-26T04:20:39.592Z,24.13
2023-01-26T04:23:26.309Z,23.40
2023-01-26T04:26:14.172Z,22.27
2023-01-26T04:29:01.042Z,21.50
2023-01-26T04:31:47.412Z,23.20
2023-01-26T04:34:34.290Z,22.03
2023-01-26T04:37:20.673Z,21.97
2023-01-26T04:40:08.289Z,23.37
2023-01-26T04:42:55.994Z,23.30
2023-01-26T04:45:42.374Z,22.80
2023-01-26T04:48:29.010Z,24.83
2023-01-26T04:51:17.818Z,23.33
2023-01-26T04:54:04.563Z,24.67
2023-01-26T04:56:51.746Z,25.83
2023-01-26T04:59:39.766Z,24.43
2023-01-26T05:02:26.422Z,23.17
2023-01-26T05:05:12.771Z,22.70
2023-01-26T05:07:59.106Z,23.70
2023-01-26T05:10:45.572Z,22.80
2023-01-26T05:13:32.210Z,22.83
2023-01-26T05:16:20.276Z,22.93
2023-01-26T05:19:06.824Z,24.73
2023-01-26T05:21:53.177Z,23.23
2023-01-26T05:24:39.553Z,23.43
2023-01-26T05:27:25.861Z,23.50
2023-01-26T05:30:14.826Z,24.20
2023-01-26T05:33:04.101Z,22.90
2023-01-26T05:35:50.633Z,25.07
2023-01-26T05:38:37.478Z,23.40
2023-01-26T05:41:23.979Z,21.63
2023-01-26T05:44:10.651Z,23.37
2023-01-26T05:46:57.221Z,22.43
2023-01-26T05:49:45.875Z,23.20
2023-01-26T05:52:32.348Z,23.90
2023-01-26T05:55:18.928Z,23.07
2023-01-26T05:58:05.499Z,23.00
2023-01-26T06:00:51.847Z,23.60
2023-01-26T06:03:38.333Z,23.50
2023-01-26T06:06:26.218Z,24.20
2023-01-26T06:09:13.052Z,24.00
2023-01-26T06:11:59.414Z,22.50
2023-01-26T06:14:47.305Z,22.63
2023-01-26T06:17:34.127Z,23.57
2023-01-26T06:20:20.599Z,22.27
2023-01-26T06:23:11.850Z,22.90
2023-01-26T06:26:00.332Z,20.37
2023-01-26T06:28:46.896Z,20.47
2023-01-26T06:31:33.345Z,21.77
2023-01-26T06:34:21.606Z,21.63
2023-01-26T06:37:08.551Z,20.30
2023-01-26T06:39:56.205Z,21.20
2023-01-26T06:42:48.457Z,21.83
2023-01-26T06:45:34.841Z,20.23
2023-01-26T06:48:21.235Z,19.93
2023-01-26T06:51:39.201Z,21.10
2023-01-26T06:54:25.606Z,20.07
2023-01-26T06:57:13.472Z,20.57
2023-01-26T06:59:59.887Z,21.63
2023-01-26T07:02:46.304Z,20.93
2023-01-26T07:05:32.734Z,20.87
2023-01-26T07:08:19.130Z,21.30
2023-01-26T07:11:08.906Z,22.37
2023-01-26T07:13:57.576Z,20.73
2023-01-26T07:16:44.179Z,21.13
2023-01-26T07:19:33.293Z,20.57
2023-01-26T07:22:19.976Z,22.03
2023-01-26T07:25:06.690Z,20.70
2023-01-26T07:27:57.283Z,20.83
2023-01-26T07:30:45.198Z,20.20
2023-01-26T07:33:32.720Z,19.97
2023-01-26T07:36:19.189Z,21.03
2023-01-26T07:39:08.187Z,21.00
2023-01-26T07:41:55.219Z,20.33
2023-01-26T07:44:41.699Z,21.10
2023-01-26T07:47:29.825Z,20.83
2023-01-26T07:50:18.433Z,20.27
2023-01-26T07:53:05.072Z,20.43
2023-01-26T07:55:51.984Z,21.67
2023-01-26T07:58:38.678Z,19.57
2023-01-26T08:01:25.687Z,21.03
2023-01-26T08:04:13.682Z,20.83
2023-01-26T08:07:00.264Z,20.90
2023-01-26T08:09:47.174Z,19.83
2023-01-26T08:12:38.953Z,20.93
2023-01-26T08:15:26.900Z,21.23
2023-01-26T08:18:13.362Z,21.67
2023-01-26T08:21:01.515Z,20.57
2023-01-26T08:23:50.291Z,21.13
2023-01-26T08:26:37.065Z,20.73
2023-01-26T08:29:23.420Z,20.33
2023-01-26T08:32:10.177Z,19.53
2023-01-26T08:34:57.106Z,21.30
2023-01-26T08:37:44.805Z,20.83
2023-01-26T08:40:31.231Z,19.93
2023-01-26T08:43:17.729Z,20.17
2023-01-26T08:46:04.414Z,19.30
2023-01-26T08:48:51.045Z,19.93
2023-01-26T08:51:37.331Z,18.50
2023-01-26T08:54:25.069Z,19.03
2023-01-26T08:57:12.281Z,18.57
2023-01-26T08:59:58.636Z,19.30
2023-01-26T09:02:45.164Z,18.93
2023-01-26T09:05:34.508Z,18.47
2023-01-26T09:08:21.086Z,18.50
2023-01-26T09:11:09.516Z,18.90
2023-01-26T09:13:57.287Z,17.37
2023-01-26T09:16:43.662Z,16.13
2023-01-26T09:19:31.221Z,17.23
2023-01-26T09:22:17.785Z,16.70
2023-01-26T09:25:04.525Z,18.27
2023-01-26T09:27:52.253Z,17.30
2023-01-26T09:30:38.822Z,16.63
2023-01-26T09:33:26.815Z,17.27
2023-01-26T09:36:13.976Z,18.03
2023-01-26T09:39:01.075Z,19.17
2023-01-26T09:42:13.194Z,15.93
2023-01-26T09:45:13.704Z,18.07
2023-01-26T09:48:13.196Z,18.03
2023-01-26T09:51:08.144Z,15.43
2023-01-26T09:53:58.425Z,16.83
2023-01-26T09:56:45.362Z,16.73
2023-01-26T09:59:36.681Z,17.50
2023-01-26T10:02:36.435Z,16.00
2023-01-26T10:05:31.296Z,18.43
2023-01-26T10:08:20.370Z,17.47
2023-01-26T10:11:13.405Z,16.17
2023-01-26T10:14:03.652Z,17.53
2023-01-26T10:16:54.151Z,17.57
2023-01-26T10:19:46.546Z,16.57
2023-01-26T10:22:41.360Z,16.83
2023-01-26T10:25:32.090Z,16.77
2023-01-26T10:28:20.734Z,16.03
2023-01-26T10:31:13.480Z,16.93
2023-01-26T10:34:03.174Z,15.63
2023-01-26T10:36:51.136Z,16.63
2023-01-26T10:39:49.774Z,15.43
2023-01-26T10:42:37.509Z,14.83
2023-01-26T10:45:30.536Z,16.13
2023-01-26T10:48:19.885Z,15.33
2023-01-26T10:51:16.926Z,15.73
2023-01-26T10:54:23.993Z,14.47
2023-01-26T10:57:18.706Z,14.50
2023-01-26T11:00:10.712Z,14.13
2023-01-26T11:03:06.179Z,14.47
2023-01-26T11:06:07.276Z,14.30
2023-01-26T11:08:53.920Z,13.83
2023-01-26T11:11:42.840Z,12.97
2023-01-26T11:14:31.126Z,14.07
2023-01-26T11:17:24.768Z,14.20
2023-01-26T11:20:45.061Z,13.00
2023-01-26T11:23:45.596Z,13.50
2023-01-26T11:26:49.400Z,12.73
2023-01-26T11:29:53.542Z,12.67
2023-01-26T11:32:47.670Z,13.40
2023-01-26T11:35:46.101Z,13.03
2023-01-26T11:38:41.590Z,12.70
2023-01-26T11:41:41.740Z,11.83
2023-01-26T11:45:07.602Z,12.30
2023-01-26T11:48:14.138Z,12.07
2023-01-26T11:51:08.496Z,10.70
2023-01-26T11:54:15.693Z,10.53
2023-01-26T11:57:12.561Z,10.33
2023-01-26T12:00:05.688Z,10.10
2023-01-26T12:03:00.525Z,9.57
2023-01-26T12:05:51.257Z,10.20
2023-01-26T12:08:42.218Z,10.57
2023-01-26T12:11:35.047Z,10.20
2023-01-26T12:14:26.559Z,10.17
2023-01-26T12:17:28.889Z,11.40
2023-01-26T12:20:28.888Z,10.30
2023-01-26T12:23:25.996Z,9.37
2023-01-26T12:26:16.148Z,10.50
2023-01-26T12:29:09.722Z,10.20
2023-01-26T12:32:02.069Z,9.83
2023-01-26T12:34:50.018Z,10.60
2023-01-26T12:37:48.283Z,9.30
2023-01-26T12:40:41.985Z,9.77
2023-01-26T12:43:46.058Z,9.80
2023-01-26T12:46:36.688Z,9.97
2023-01-26T12:49:27.382Z,10.23
2023-01-26T12:52:21.079Z,10.13
2023-01-26T12:55:16.565Z,9.23
2023-01-26T12:58:06.321Z,9.23
2023-01-26T13:01:03.591Z,8.50
2023-01-26T13:03:55.098Z,9.03
2023-01-26T13:06:42.089Z,8.17
2023-01-26T13:09:29.864Z,7.50
2023-01-26T13:12:52.061Z,8.10
2023-01-26T13:15:40.596Z,8.40
2023-01-26T13:18:51.659Z,6.93
2023-01-26T13:21:44.984Z,8.07
2023-01-26T13:24:48.695Z,7.40
2023-01-26T13:27:41.952Z,6.63
2023-01-26T13:30:43.299Z,7.07
2023-01-26T13:33:30.017Z,7.50
2023-01-26T13:36:19.208Z,7.63
2023-01-26T13:39:14.778Z,7.23
2023-01-26T13:42:03.218Z,6.63
2023-01-26T13:44:57.340Z,6.73
2023-01-26T13:47:46.510Z,6.77
2023-01-26T13:50:37.672Z,6.17
2023-01-26T13:53:36.113Z,6.53
2023-01-26T13:56:28.782Z,6.47
2023-01-26T13:59:19.422Z,6.50
2023-01-26T14:02:21.971Z,6.77
2023-01-26T14:05:09.393Z,7.17
2023-01-26T14:07:57.060Z,6.87
2023-01-26T14:10:44.185Z,6.30
2023-01-26T14:13:34.256Z,6.23
2023-01-26T14:16:26.476Z,7.27
2023-01-26T14:19:16.301Z,6.30
2023-01-26T14:22:05.217Z,5.93
2023-01-26T14:24:52.826Z,6.00
2023-01-26T14:27:41.284Z,6.50
2023-01-26T14:30:30.532Z,5.80
2023-01-26T14:33:19.219Z,6.20
2023-01-26T14:36:07.312Z,6.40
2023-01-26T14:38:56.052Z,6.77
2023-01-26T14:41:43.370Z,6.70
2023-01-26T14:44:30.604Z,5.83
2023-01-26T14:47:21.825Z,6.27
2023-01-26T14:50:16.503Z,5.87
2023-01-26T14:53:04.603Z,5.50
2023-01-26T14:55:52.845Z,7.53
2023-01-26T14:58:39.961Z,7.27
2023-01-26T15:01:28.252Z,7.87
2023-01-26T15:04:23.409Z,5.97
2023-01-26T15:07:39.916Z,6.33
2023-01-26T15:10:33.796Z,6.37
2023-01-26T15:13:23.755Z,6.97
2023-01-26T15:16:16.994Z,6.93
2023-01-26T15:19:06.796Z,5.53
2023-01-26T15:21:53.428Z,7.17
2023-01-26T15:24:41.936Z,7.73
2023-01-26T15:27:32.571Z,8.33
2023-01-26T15:30:22.946Z,6.53
2023-01-26T15:33:55.919Z,7.23
2023-01-26T15:36:49.670Z,7.17
2023-01-26T15:39:37.813Z,6.20
2023-01-26T15:42:28.863Z,6.47
2023-01-26T15:45:25.177Z,7.83
2023-01-26T15:48:11.522Z,9.27
2023-01-26T15:50:57.816Z,9.57
2023-01-26T15:53:44.926Z,7.50
2023-01-26T15:56:31.640Z,10.73
2023-01-26T15:59:19.642Z,9.97
2023-01-26T16:02:12.152Z,7.47
2023-01-26T16:04:59.113Z,7.90
2023-01-26T16:07:45.965Z,7.80
2023-01-26T16:10:33.251Z,6.70
2023-01-26T16:13:20.472Z,8.30
2023-01-26T16:16:11.104Z,7.67
2023-01-26T16:18:58.400Z,8.67
2023-01-26T16:21:45.757Z,7.20
2023-01-26T16:24:32.576Z,8.03
2023-01-26T16:27:21.647Z,6.00
2023-01-26T16:30:09.777Z,6.97
2023-01-26T16:32:57.818Z,8.03
2023-01-26T16:35:44.568Z,6.77
2023-01-26T16:38:30.952Z,15.63
2023-01-26T16:41:21.525Z,11.70
2023-01-26T16:44:14.485Z,8.73
2023-01-26T16:47:01.211Z,8.00
2023-01-26T16:49:48.948Z,9.27
2023-01-26T16:52:36.081Z,7.60
2023-01-26T16:55:23.373Z,8.47
2023-01-26T16:58:10.277Z,8.03
2023-01-26T17:00:57.216Z,8.13
2023-01-26T17:03:44.036Z,8.50
2023-01-26T17:06:32.790Z,7.90
2023-01-26T17:09:20.973Z,7.77
2023-01-26T17:12:07.657Z,8.57
2023-01-26T17:14:54.436Z,8.57
2023-01-26T17:17:42.630Z,7.60
2023-01-26T17:20:29.426Z,9.40
2023-01-26T17:23:17.161Z,9.37
2023-01-26T17:26:03.754Z,9.23
2023-01-26T17:28:53.633Z,9.43
2023-01-26T17:31:40.232Z,8.67
2023-01-26T17:34:26.996Z,8.67
2023-01-26T17:37:13.666Z,8.17
2023-01-26T17:40:01.416Z,8.57
2023-01-26T17:42:48.161Z,8.60
2023-01-26T17:45:34.588Z,8.60
2023-01-26T17:48:21.369Z,9.60
2023-01-26T17:51:08.436Z,10.07
2023-01-26T17:53:55.290Z,8.73
2023-01-26T17:56:43.389Z,9.83
2023-01-26T17:59:30.035Z,8.97
2023-01-26T18:02:16.979Z,9.37
2023-01-26T18:05:03.721Z,10.53
2023-01-26T18:07:51.200Z,9.03
2023-01-26T18:10:37.761Z,8.53
2023-01-26T18:13:25.588Z,8.13
2023-01-26T18:16:15.938Z,9.00
2023-01-26T18:19:04.407Z,9.67
2023-01-26T18:21:51.306Z,8.53
2023-01-26T18:24:37.679Z,11.53
2023-01-26T18:27:24.081Z,11.10
2023-01-26T18:30:13.395Z,19.27
2023-01-26T18:33:00.236Z,21.80
2023-01-26T18:35:46.830Z,18.17
2023-01-26T18:38:33.269Z,10.97
2023-01-26T18:41:21.457Z,10.40
2023-01-26T18:44:08.377Z,22.77
2023-01-26T18:46:56.084Z,24.43
2023-01-26T18:49:42.776Z,10.97
2023-01-26T18:52:31.025Z,14.33
2023-01-26T18:55:17.711Z,11.27
2023-01-26T18:58:04.344Z,14.83
2023-01-26T19:00:50.916Z,12.63
2023-01-26T19:03:39.989Z,10.73
2023-01-26T19:06:28.375Z,10.90
2023-01-26T19:09:15.083Z,9.87
2023-01-26T19:12:02.139Z,17.50
2023-01-26T19:14:48.515Z,13.73
2023-01-26T19:17:34.890Z,11.53
2023-01-26T19:20:22.767Z,11.00
2023-01-26T19:23:09.691Z,13.17
2023-01-26T19:25:57.370Z,13.37
2023-01-26T19:28:43.761Z,13.20
2023-01-26T19:31:30.773Z,13.73
2023-01-26T19:34:18.041Z,14.13
2023-01-26T19:37:05.665Z,11.57
2023-01-26T19:39:52.072Z,11.97
2023-01-26T19:42:38.404Z,13.50
2023-01-26T19:45:24.854Z,13.90
2023-01-26T19:48:11.653Z,13.60
2023-01-26T19:51:00.824Z,14.03
2023-01-26T19:53:50.999Z,13.10
2023-01-26T19:56:38.031Z,12.93
2023-01-26T19:59:26.052Z,11.83
2023-01-26T20:02:12.340Z,12.47
2023-01-26T20:04:58.645Z,13.50
2023-01-26T20:07:45.120Z,12.20
2023-01-26T20:10:33.196Z,12.67
2023-01-26T20:13:19.625Z,11.50
2023-01-26T20:16:08.183Z,12.53
2023-01-26T20:18:54.837Z,11.07
2023-01-26T20:21:41.287Z,10.63
2023-01-26T20:24:27.734Z,10.73
2023-01-26T20:27:16.374Z,10.80
2023-01-26T20:30:03.020Z,11.23
2023-01-26T20:32:52.844Z,11.77
2023-01-26T20:35:42.759Z,11.40
2023-01-26T20:38:29.157Z,11.27
2023-01-26T20:41:17.523Z,11.63
2023-01-26T20:44:07.488Z,10.53
2023-01-26T20:46:53.903Z,9.17
2023-01-26T20:49:40.565Z,11.43
2023-01-26T20:52:27.237Z,9.13
2023-01-26T20:55:13.774Z,9.73
2023-01-26T20:58:00.273Z,9.60
2023-01-26T21:00:47.999Z,9.67
2023-01-26T21:03:35.082Z,8.87
2023-01-26T21:06:24.128Z,9.77
2023-01-26T21:09:12.918Z,8.40
2023-01-26T21:11:59.539Z,8.13
2023-01-26T21:14:46.667Z,8.43
2023-01-26T21:17:34.518Z,8.33
2023-01-26T21:20:21.684Z,9.10
2023-01-26T21:23:08.295Z,9.10
2023-01-26T21:25:59.534Z,9.33
2023-01-26T21:28:49.957Z,8.10
2023-01-26T21:31:36.802Z,8.13
2023-01-26T21:34:25.051Z,7.13
2023-01-26T21:37:11.716Z,8.70
2023-01-26T21:39:58.300Z,8.33
2023-01-26T21:42:44.694Z,9.03
2023-01-26T21:45:48.370Z,7.90
2023-01-26T21:48:38.079Z,8.33
2023-01-26T21:51:44.333Z,8.40
2023-01-26T21:54:31.856Z,8.30
2023-01-26T21:57:35.776Z,9.37
2023-01-26T22:00:23.557Z,8.73
2023-01-26T22:03:10.277Z,9.73
2023-01-26T22:05:56.896Z,8.87
2023-01-26T22:08:44.935Z,8.97
2023-01-26T22:11:32.023Z,10.03
2023-01-26T22:14:20.956Z,8.27
2023-01-26T22:17:07.614Z,9.87
2023-01-26T22:19:56.205Z,9.20
2023-01-26T22:22:42.758Z,9.20
2023-01-26T22:25:30.524Z,9.23
2023-01-26T22:28:17.232Z,8.47
2023-01-26T22:31:06.677Z,8.53
2023-01-26T22:33:53.778Z,8.57
2023-01-26T22:36:41.079Z,8.83
2023-01-26T22:39:27.629Z,8.97
2023-01-26T22:42:15.281Z,8.57
2023-01-26T22:45:01.731Z,8.30
2023-01-26T22:47:49.516Z,7.90
2023-01-26T22:50:35.885Z,7.33
2023-01-26T22:53:22.233Z,8.40
2023-01-26T22:56:09.971Z,9.17
2023-01-26T22:59:00.417Z,9.33
2023-01-26T23:01:47.545Z,8.20
2023-01-26T23:04:34.212Z,8.67
2023-01-26T23:07:20.919Z,9.17
2023-01-26T23:10:08.584Z,8.37
2023-01-26T23:12:55.044Z,7.83
2023-01-26T23:15:42.724Z,8.57
2023-01-26T23:18:29.262Z,8.40
2023-01-26T23:21:16.292Z,8.30
2023-01-26T23:24:03.015Z,9.37
2023-01-26T23:26:49.825Z,8.70
2023-01-26T23:29:36.402Z,9.23
2023-01-26T23:32:24.185Z,9.43
2023-01-26T23:35:10.971Z,10.20
2023-01-26T23:37:57.653Z,9.57
2023-01-26T23:40:45.529Z,9.03
2023-01-26T23:43:32.177Z,9.80
2023-01-26T23:46:18.990Z,10.00
2023-01-26T23:49:07.577Z,8.33
2023-01-26T23:51:54.060Z,9.20
2023-01-26T23:54:40.453Z,9.77
2023-01-26T23:57:27.254Z,8.83
